Time;durP1;ratioP1;P1;durP2;ratioP2;P2;SDS_P1;SDS_P2;PMS_P1;PMS_P2;Temp;Humidity;BMP_temperature;BMP_pressure;BME280_temperature;BME280_humidity;BME280_pressure;Samples;Min_cycle;Max_cycle;Signal;HPM_P1;HPM_P2
2021/08/30 00:02:23;;;;;;;3.22;2.63;;;14.80;99.90;;;;;;5014549;28;20214;-44
2021/08/30 00:04:49;;;;;;;2.90;2.22;;;14.80;99.90;;;;;;5013315;28;20049;-47
2021/08/30 00:07:14;;;;;;;2.63;2.40;;;14.80;99.90;;;;;;5014613;28;20041;-42
2021/08/30 00:09:43;;;;;;;2.75;2.45;;;14.80;99.90;;;;;;5014277;28;20084;-45
2021/08/30 00:12:10;;;;;;;3.03;2.30;;;14.80;99.90;;;;;;5014172;28;20026;-45
2021/08/30 00:14:37;;;;;;;5.55;2.67;;;14.70;99.90;;;;;;5014370;28;20041;-44
2021/08/30 00:17:03;;;;;;;2.88;2.40;;;14.70;99.90;;;;;;5014102;28;20493;-42
2021/08/30 00:19:32;;;;;;;2.90;2.53;;;14.70;99.90;;;;;;5013195;28;20508;-42
2021/08/30 00:21:58;;;;;;;3.08;2.78;;;14.70;99.90;;;;;;5014014;28;20544;-48
2021/08/30 00:24:24;;;;;;;3.05;2.45;;;14.70;99.90;;;;;;5013972;28;20117;-45
2021/08/30 00:26:51;;;;;;;3.10;2.33;;;14.70;99.90;;;;;;5014102;28;20041;-43
2021/08/30 00:29:17;;;;;;;2.60;2.20;;;14.60;99.90;;;;;;5013978;28;20037;-42
2021/08/30 00:31:43;;;;;;;2.83;1.98;;;14.60;99.90;;;;;;5013983;28;20026;-42
2021/08/30 00:34:08;;;;;;;3.25;2.50;;;14.60;99.90;;;;;;5012888;28;20033;-42
2021/08/30 00:36:34;;;;;;;2.42;1.92;;;14.60;99.90;;;;;;5013786;28;20026;-44
2021/08/30 00:38:59;;;;;;;5.25;2.20;;;14.60;99.90;;;;;;5013692;28;20022;-45
2021/08/30 00:41:25;;;;;;;3.30;2.10;;;14.60;99.90;;;;;;5013830;28;20057;-42
2021/08/30 00:43:52;;;;;;;3.38;2.33;;;14.60;99.90;;;;;;5013750;28;20034;-42
2021/08/30 00:46:18;;;;;;;2.90;2.22;;;14.60;99.90;;;;;;5013478;28;20026;-42
2021/08/30 00:48:49;;;;;;;2.92;2.33;;;14.60;99.90;;;;;;5012754;28;20030;-42
2021/08/30 00:51:16;;;;;;;2.80;2.45;;;14.50;99.90;;;;;;5013384;28;20133;-44
2021/08/30 00:53:49;;;;;;;2.97;2.08;;;14.50;99.90;;;;;;5013568;28;20177;-43
2021/08/30 00:56:18;;;;;;;3.72;1.80;;;14.40;99.90;;;;;;5013501;28;20030;-42
2021/08/30 00:58:44;;;;;;;3.25;2.35;;;14.30;99.90;;;;;;5013579;28;20022;-42
2021/08/30 01:01:11;;;;;;;2.20;1.80;;;14.20;99.90;;;;;;5013235;28;20076;-44
2021/08/30 01:03:38;;;;;;;5.68;2.20;;;14.10;99.90;;;;;;5012345;28;20050;-45
2021/08/30 01:06:15;;;;;;;2.85;2.22;;;14.00;99.90;;;;;;5013176;28;20061;-42
2021/08/30 01:08:47;;;;;;;3.83;2.50;;;14.00;99.90;;;;;;5013409;28;20057;-45
2021/08/30 01:11:25;;;;;;;5.13;2.63;;;13.90;99.90;;;;;;5013234;28;20034;-42
2021/08/30 01:14:00;;;;;;;4.45;2.80;;;13.90;99.90;;;;;;5013269;28;20030;-43
2021/08/30 01:16:27;;;;;;;3.53;2.30;;;13.90;99.90;;;;;;5013144;28;20024;-42
2021/08/30 01:18:54;;;;;;;4.18;2.08;;;13.90;99.90;;;;;;5012340;28;20026;-42
2021/08/30 01:21:25;;;;;;;2.10;1.90;;;13.90;99.90;;;;;;5013088;28;20029;-44
2021/08/30 01:24:05;;;;;;;2.85;2.30;;;13.80;99.90;;;;;;5013087;28;20182;-43
2021/08/30 01:26:35;;;;;;;2.83;2.25;;;13.80;99.90;;;;;;5011940;28;20041;-42
2021/08/30 01:29:20;;;;;;;2.38;2.15;;;13.80;99.90;;;;;;5012860;28;20497;-42
2021/08/30 01:31:55;;;;;;;2.22;2.03;;;13.90;99.90;;;;;;5012979;28;20053;-42
2021/08/30 01:34:23;;;;;;;2.53;2.00;;;13.90;99.90;;;;;;5012030;28;20358;-44
2021/08/30 01:36:50;;;;;;;2.97;1.90;;;13.80;99.90;;;;;;5013117;28;20101;-41
2021/08/30 01:39:17;;;;;;;1.88;1.70;;;13.80;99.90;;;;;;5012801;28;20478;-44
2021/08/30 01:41:44;;;;;;;3.03;2.38;;;13.80;99.90;;;;;;5012953;28;20072;-43
2021/08/30 01:44:12;;;;;;;3.10;2.22;;;13.80;99.90;;;;;;5011584;28;20017;-42
2021/08/30 01:46:39;;;;;;;2.50;1.92;;;13.80;99.90;;;;;;5012892;28;20018;-43
2021/08/30 01:49:07;;;;;;;3.10;2.47;;;13.80;99.90;;;;;;5011932;28;20076;-42
2021/08/30 01:51:33;;;;;;;3.67;2.38;;;13.90;99.90;;;;;;5012912;28;20026;-41
2021/08/30 01:53:59;;;;;;;2.30;1.80;;;13.90;99.90;;;;;;5012610;28;20030;-44
2021/08/30 01:56:27;;;;;;;3.03;2.60;;;13.90;99.90;;;;;;5012742;28;20037;-44
2021/08/30 02:01:40;;;;;;;5.10;2.70;;;14.00;99.90;;;;;;5016790;28;20041;-43
2021/08/30 02:04:06;;;;;;;2.20;2.00;;;14.10;99.90;;;;;;5015620;28;20124;-43
2021/08/30 02:06:33;;;;;;;2.25;2.05;;;14.10;99.90;;;;;;5016527;28;20104;-42
2021/08/30 02:08:59;;;;;;;3.03;2.53;;;14.10;99.90;;;;;;5016689;28;20025;-41
2021/08/30 02:11:31;;;;;;;3.33;2.28;;;14.20;99.90;;;;;;5016565;28;20058;-42
2021/08/30 02:13:58;;;;;;;4.22;2.08;;;14.20;99.90;;;;;;5016425;28;20037;-42
2021/08/30 02:16:24;;;;;;;3.53;3.22;;;14.20;99.90;;;;;;5016475;28;20026;-43
2021/08/30 02:19:17;;;;;;;3.60;3.05;;;14.20;99.90;;;;;;5015425;28;20033;-45
2021/08/30 02:22:02;;;;;;;3.05;2.60;;;14.20;99.90;;;;;;5016444;28;20022;-41
2021/08/30 02:25:04;;;;;;;3.75;2.90;;;14.20;99.90;;;;;;5016171;28;20033;-42
2021/08/30 02:27:36;;;;;;;3.47;2.60;;;14.20;99.90;;;;;;5015147;28;20125;-43
2021/08/30 02:30:21;;;;;;;2.97;2.33;;;14.20;99.90;;;;;;5016222;28;20022;-45
2021/08/30 02:32:52;;;;;;;4.32;3.38;;;14.30;99.90;;;;;;5015132;28;20022;-43
2021/08/30 02:35:22;;;;;;;3.28;2.92;;;14.30;99.90;;;;;;5016074;28;20030;-42
2021/08/30 02:37:51;;;;;;;4.78;3.33;;;14.30;99.90;;;;;;5015982;28;20029;-44
2021/08/30 02:40:21;;;;;;;6.35;4.65;;;14.30;99.90;;;;;;5015996;28;20097;-42
2021/08/30 02:42:47;;;;;;;3.78;3.08;;;14.30;99.90;;;;;;5016036;28;20153;-44
2021/08/30 02:45:14;;;;;;;3.90;3.30;;;14.30;99.90;;;;;;5015980;28;20069;-42
2021/08/30 02:47:40;;;;;;;6.28;3.72;;;14.30;99.90;;;;;;5015179;28;20037;-44
2021/08/30 02:50:07;;;;;;;7.07;3.25;;;14.30;99.90;;;;;;5015836;28;20041;-45
2021/08/30 02:52:33;;;;;;;4.03;3.25;;;14.30;99.90;;;;;;5012309;28;20034;-42
2021/08/30 02:54:59;;;;;;;8.48;4.38;;;14.30;99.90;;;;;;5014406;28;20449;-42
2021/08/30 02:57:26;;;;;;;6.05;3.75;;;14.30;99.90;;;;;;5014390;28;20033;-44
2021/08/30 02:59:52;;;;;;;9.00;3.78;;;14.30;99.90;;;;;;5014432;28;20018;-45
2021/08/30 03:02:20;;;;;;;6.55;3.80;;;14.30;99.90;;;;;;5014303;28;20030;-42
2021/08/30 03:04:46;;;;;;;11.57;4.40;;;14.20;99.90;;;;;;5013177;28;20070;-47
2021/08/30 03:07:12;;;;;;;11.52;4.85;;;14.20;99.90;;;;;;5014098;28;20072;-44
2021/08/30 03:09:38;;;;;;;6.13;4.53;;;14.20;99.90;;;;;;5014089;28;20465;-43
2021/08/30 03:12:04;;;;;;;5.55;3.72;;;14.20;99.90;;;;;;5014182;28;20080;-45
2021/08/30 03:14:31;;;;;;;5.70;4.43;;;14.20;99.90;;;;;;5013991;28;20026;-42
2021/08/30 03:17:00;;;;;;;8.90;5.35;;;14.20;99.90;;;;;;5014100;28;20026;-45
2021/08/30 03:19:27;;;;;;;6.47;3.90;;;14.20;99.90;;;;;;5012594;28;20036;-43
2021/08/30 03:21:54;;;;;;;4.93;3.70;;;14.20;99.90;;;;;;5013953;28;20026;-41
2021/08/30 03:24:21;;;;;;;4.18;3.05;;;14.20;99.90;;;;;;5015045;28;20065;-43
2021/08/30 03:26:49;;;;;;;4.88;3.85;;;14.20;99.90;;;;;;5015416;28;20419;-44
2021/08/30 03:29:16;;;;;;;5.05;3.53;;;14.10;99.90;;;;;;5015117;28;20101;-43
2021/08/30 03:31:42;;;;;;;4.78;3.40;;;14.10;99.90;;;;;;5015194;28;20029;-46
2021/08/30 03:34:08;;;;;;;4.07;3.30;;;14.10;99.90;;;;;;5013829;28;20037;-42
2021/08/30 03:36:34;;;;;;;4.53;3.30;;;14.10;99.90;;;;;;5014895;28;20109;-45
2021/08/30 03:39:00;;;;;;;4.07;3.35;;;14.00;99.90;;;;;;5014954;28;20022;-44
2021/08/30 03:41:26;;;;;;;5.40;4.18;;;14.00;99.90;;;;;;5014856;28;20058;-42
2021/08/30 03:43:55;;;;;;;5.55;3.92;;;14.10;99.90;;;;;;5014889;28;20462;-43
2021/08/30 03:46:20;;;;;;;3.95;3.42;;;14.10;99.90;;;;;;5014564;28;20489;-42
2021/08/30 03:48:46;;;;;;;5.63;3.65;;;14.10;99.90;;;;;;5013688;28;20181;-43
2021/08/30 03:51:14;;;;;;;5.13;3.70;;;14.10;99.90;;;;;;5014755;28;20069;-43
2021/08/30 03:53:41;;;;;;;4.85;3.88;;;14.20;99.90;;;;;;5014557;28;20113;-43
2021/08/30 03:56:08;;;;;;;3.60;3.25;;;14.20;99.90;;;;;;5014670;28;20018;-43
2021/08/30 03:58:36;;;;;;;4.82;3.72;;;14.20;99.90;;;;;;5014534;28;20473;-44
2021/08/30 04:01:05;;;;;;;4.90;3.35;;;14.20;99.90;;;;;;5014499;28;20030;-45
2021/08/30 04:03:35;;;;;;;6.00;3.83;;;14.30;99.90;;;;;;5013255;28;20146;-43
2021/08/30 04:06:01;;;;;;;5.10;4.13;;;14.20;99.90;;;;;;5016509;28;20517;-43
2021/08/30 04:08:29;;;;;;;5.00;3.90;;;14.30;99.90;;;;;;5014107;28;20034;-43
2021/08/30 04:10:55;;;;;;;5.53;4.35;;;14.30;99.90;;;;;;5012966;28;20026;-44
2021/08/30 04:13:20;;;;;;;4.90;4.13;;;14.30;99.90;;;;;;5012721;28;20053;-43
2021/08/30 04:15:46;;;;;;;6.95;3.72;;;14.30;99.90;;;;;;5012648;28;20470;-44
2021/08/30 04:18:11;;;;;;;5.32;4.50;;;14.30;99.90;;;;;;5011763;28;20038;-45
2021/08/30 04:20:36;;;;;;;6.80;3.92;;;14.30;99.90;;;;;;5012215;28;20105;-43
2021/08/30 04:23:02;;;;;;;6.28;3.33;;;14.40;99.90;;;;;;5012511;28;20040;-43
2021/08/30 04:25:27;;;;;;;4.45;3.38;;;14.40;99.90;;;;;;5012497;28;20480;-44
2021/08/30 04:27:53;;;;;;;4.43;3.13;;;14.30;99.90;;;;;;5011208;28;20076;-43
2021/08/30 04:30:19;;;;;;;3.83;2.72;;;14.40;99.90;;;;;;5012502;28;20033;-43
2021/08/30 04:32:44;;;;;;;4.20;3.20;;;14.40;99.90;;;;;;5025175;28;20087;-42
2021/08/30 04:35:10;;;;;;;5.45;3.42;;;14.40;99.90;;;;;;5012481;28;20072;-44
2021/08/30 04:37:36;;;;;;;4.97;3.50;;;14.40;99.90;;;;;;5012277;28;20034;-43
2021/08/30 04:40:03;;;;;;;5.00;3.92;;;14.40;99.90;;;;;;5012351;28;20041;-42
2021/08/30 04:42:29;;;;;;;10.05;3.75;;;14.40;99.90;;;;;;4997896;28;20033;-45
2021/08/30 04:44:56;;;;;;;5.55;3.40;;;14.40;99.90;;;;;;5000082;28;20022;-46
2021/08/30 04:47:21;;;;;;;4.85;3.70;;;14.50;99.90;;;;;;5013236;28;20118;-46
2021/08/30 04:49:47;;;;;;;5.88;2.70;;;14.50;99.90;;;;;;5012543;28;20105;-42
2021/08/30 04:52:12;;;;;;;5.13;3.50;;;14.50;99.90;;;;;;5013268;28;20038;-45
2021/08/30 04:54:38;;;;;;;7.03;3.85;;;14.50;99.90;;;;;;5013051;28;20544;-42
2021/08/30 04:57:03;;;;;;;4.82;3.42;;;14.60;99.90;;;;;;5013393;28;20034;-43
2021/08/30 04:59:29;;;;;;;4.43;3.15;;;14.60;99.90;;;;;;5013143;28;20355;-43
2021/08/30 05:01:54;;;;;;;4.00;3.20;;;14.60;99.90;;;;;;5013495;28;20109;-42
2021/08/30 05:04:20;;;;;;;5.45;3.33;;;14.60;99.90;;;;;;5012055;28;20526;-43
2021/08/30 05:06:45;;;;;;;5.00;3.25;;;14.60;99.90;;;;;;5013086;28;20026;-43
2021/08/30 05:09:11;;;;;;;5.50;3.70;;;14.60;99.90;;;;;;5013115;28;20026;-42
2021/08/30 05:11:37;;;;;;;4.57;3.22;;;14.60;99.90;;;;;;5012950;28;20489;-42
2021/08/30 05:14:04;;;;;;;4.53;3.17;;;14.60;99.90;;;;;;5013022;28;20084;-43
2021/08/30 05:16:29;;;;;;;4.65;2.80;;;14.70;99.90;;;;;;5012864;28;20176;-41
2021/08/30 05:18:55;;;;;;;4.53;3.22;;;14.70;99.90;;;;;;5011947;28;20022;-45
2021/08/30 05:21:20;;;;;;;4.03;3.17;;;14.70;99.90;;;;;;5013324;28;20033;-45
2021/08/30 05:23:46;;;;;;;5.43;3.97;;;14.70;99.90;;;;;;5013037;28;20033;-45
2021/08/30 05:26:11;;;;;;;6.57;3.72;;;14.70;99.90;;;;;;5013119;28;20037;-45
2021/08/30 05:28:38;;;;;;;5.85;3.78;;;14.80;99.90;;;;;;5012994;28;20036;-44
2021/08/30 05:31:03;;;;;;;4.25;3.25;;;14.80;99.90;;;;;;5012910;28;20028;-45
2021/08/30 05:33:29;;;;;;;3.47;2.95;;;14.80;99.90;;;;;;5010680;28;20038;-45
2021/08/30 05:35:54;;;;;;;6.72;3.15;;;14.80;99.90;;;;;;5013021;28;20444;-44
2021/08/30 05:38:20;;;;;;;7.07;3.20;;;14.80;99.90;;;;;;5013012;28;20072;-42
2021/08/30 05:40:45;;;;;;;6.82;4.60;;;14.80;99.90;;;;;;5011641;28;20061;-44
2021/08/30 05:43:11;;;;;;;10.50;3.70;;;14.90;99.90;;;;;;5013012;28;20108;-47
2021/08/30 05:45:36;;;;;;;5.13;3.53;;;14.90;99.90;;;;;;5012632;28;20423;-43
2021/08/30 05:48:02;;;;;;;7.18;4.10;;;14.90;99.90;;;;;;5011675;28;20026;-42
2021/08/30 05:50:28;;;;;;;4.82;3.78;;;15.00;99.90;;;;;;5012824;28;20465;-43
2021/08/30 05:52:53;;;;;;;8.32;3.60;;;15.10;99.90;;;;;;5012957;28;20490;-42
2021/08/30 05:55:19;;;;;;;4.65;2.97;;;15.10;99.90;;;;;;5012831;28;20060;-43
2021/08/30 05:57:45;;;;;;;6.10;3.55;;;15.20;99.90;;;;;;5012697;28;20053;-42
2021/08/30 06:00:11;;;;;;;4.30;3.15;;;15.30;99.90;;;;;;5012668;28;20034;-45
2021/08/30 06:02:37;;;;;;;5.22;3.88;;;15.40;99.90;;;;;;5011370;28;20030;-42
2021/08/30 06:05:03;;;;;;;5.45;3.85;;;15.50;99.90;;;;;;5012626;28;20478;-47
2021/08/30 06:07:28;;;;;;;4.93;3.97;;;15.50;99.90;;;;;;5012616;28;20022;-42
2021/08/30 06:09:54;;;;;;;4.70;3.85;;;15.60;99.90;;;;;;5012601;28;20018;-43
2021/08/30 06:12:19;;;;;;;5.13;3.65;;;15.70;99.90;;;;;;5012602;28;20030;-44
2021/08/30 06:14:45;;;;;;;6.07;4.05;;;15.70;99.90;;;;;;5012473;28;20489;-42
2021/08/30 06:17:10;;;;;;;5.25;3.78;;;15.80;99.90;;;;;;5012580;28;20060;-45
2021/08/30 06:19:36;;;;;;;5.75;4.05;;;15.80;99.90;;;;;;5011207;28;20030;-42
2021/08/30 06:22:01;;;;;;;4.90;3.88;;;15.80;99.90;;;;;;5012599;28;20077;-43
2021/08/30 06:24:27;;;;;;;4.95;3.78;;;15.90;99.90;;;;;;5012507;28;20026;-43
2021/08/30 06:26:53;;;;;;;4.65;3.50;;;15.90;99.90;;;;;;5012483;28;20386;-43
2021/08/30 06:29:18;;;;;;;5.70;4.10;;;15.90;99.90;;;;;;5012540;28;20080;-45
2021/08/30 06:31:44;;;;;;;5.03;3.83;;;16.00;99.90;;;;;;5012411;28;20033;-45
2021/08/30 06:34:09;;;;;;;6.65;4.90;;;16.00;99.90;;;;;;5011138;28;20026;-43
2021/08/30 06:36:35;;;;;;;6.78;4.22;;;16.10;99.90;;;;;;5012366;28;20022;-43
2021/08/30 06:39:01;;;;;;;5.60;4.15;;;16.00;99.90;;;;;;5012417;28;20022;-43
2021/08/30 06:41:27;;;;;;;5.07;3.92;;;16.10;99.90;;;;;;5012409;28;20121;-43
2021/08/30 06:43:53;;;;;;;7.60;4.63;;;16.20;99.90;;;;;;5012154;28;20037;-43
2021/08/30 06:46:18;;;;;;;5.32;4.00;;;16.20;99.90;;;;;;5015954;28;20048;-45
2021/08/30 06:48:44;;;;;;;6.55;4.32;;;16.30;99.90;;;;;;5014564;28;20112;-43
2021/08/30 06:51:10;;;;;;;5.65;4.05;;;16.30;99.90;;;;;;5015864;28;20124;-45
2021/08/30 06:53:35;;;;;;;5.00;4.20;;;16.40;99.90;;;;;;5015610;28;20084;-46
2021/08/30 06:56:01;;;;;;;6.03;4.25;;;16.50;99.90;;;;;;5015824;28;20026;-44
2021/08/30 06:58:26;;;;;;;9.35;4.78;;;16.60;99.90;;;;;;5015573;28;20018;-45
2021/08/30 07:00:52;;;;;;;4.75;3.95;;;16.70;99.90;;;;;;5015610;28;20028;-44
2021/08/30 07:03:17;;;;;;;5.18;3.88;;;16.70;99.90;;;;;;5014229;28;20109;-45
2021/08/30 07:05:43;;;;;;;6.72;4.68;;;16.80;99.90;;;;;;5015777;28;20469;-43
2021/08/30 07:08:08;;;;;;;5.45;4.15;;;16.80;99.90;;;;;;5015582;28;20066;-45
2021/08/30 07:10:34;;;;;;;6.85;5.20;;;16.90;99.90;;;;;;5015411;28;20029;-42
2021/08/30 07:12:59;;;;;;;7.75;5.45;;;16.90;99.90;;;;;;5015561;28;20033;-46
2021/08/30 07:15:25;;;;;;;6.78;5.35;;;16.90;99.90;;;;;;5015398;28;20106;-44
2021/08/30 07:17:50;;;;;;;5.57;5.00;;;16.80;99.90;;;;;;5014061;28;20091;-43
2021/08/30 07:20:16;;;;;;;5.82;5.20;;;16.70;99.90;;;;;;5015348;28;20442;-43
2021/08/30 07:22:41;;;;;;;9.30;7.00;;;16.70;99.90;;;;;;5015202;28;20026;-43
2021/08/30 07:25:07;;;;;;;11.63;7.20;;;16.60;99.90;;;;;;5015298;28;20025;-44
2021/08/30 07:27:33;;;;;;;7.68;6.53;;;16.60;99.90;;;;;;5015149;28;20037;-43
2021/08/30 07:29:59;;;;;;;8.23;7.03;;;16.50;99.90;;;;;;5015048;28;20486;-44
2021/08/30 07:32:25;;;;;;;7.95;6.78;;;16.50;99.90;;;;;;5015074;28;20130;-45
2021/08/30 07:34:51;;;;;;;9.00;7.38;;;16.60;99.90;;;;;;5013685;28;20022;-45
2021/08/30 07:37:16;;;;;;;8.57;7.35;;;16.70;99.90;;;;;;5015246;28;20033;-43
2021/08/30 07:39:41;;;;;;;10.00;7.38;;;16.70;99.90;;;;;;5014926;28;20153;-43
2021/08/30 07:42:07;;;;;;;9.40;8.10;;;16.80;99.90;;;;;;5014931;28;20025;-43
2021/08/30 07:44:33;;;;;;;13.38;9.82;;;16.70;99.90;;;;;;5014795;28;20038;-43
2021/08/30 07:46:58;;;;;;;11.93;8.43;;;16.70;99.90;;;;;;5014697;28;20026;-42
2021/08/30 07:49:24;;;;;;;12.23;7.88;;;16.60;99.90;;;;;;5013548;28;20022;-44
2021/08/30 07:51:49;;;;;;;12.77;8.85;;;16.60;99.90;;;;;;5013952;28;20045;-45
2021/08/30 07:54:15;;;;;;;10.45;7.65;;;16.70;99.90;;;;;;5014248;28;20034;-45
2021/08/30 07:56:41;;;;;;;9.05;7.05;;;16.70;99.90;;;;;;5013196;28;20032;-45
2021/08/30 07:59:08;;;;;;;9.77;7.63;;;16.80;99.90;;;;;;5014178;28;20038;-43
2021/08/30 08:01:34;;;;;;;12.65;9.23;;;16.90;99.90;;;;;;5014263;28;20034;-46
2021/08/30 08:03:59;;;;;;;14.68;9.38;;;16.90;99.90;;;;;;5012525;28;20157;-49
2021/08/30 08:06:25;;;;;;;8.25;6.40;;;16.90;99.90;;;;;;5014200;28;20038;-43
2021/08/30 08:08:51;;;;;;;10.27;7.20;;;17.00;99.90;;;;;;5013804;28;20386;-45
2021/08/30 08:11:17;;;;;;;16.42;9.35;;;17.10;99.90;;;;;;5014383;28;20030;-44
2021/08/30 08:13:42;;;;;;;11.35;7.75;;;17.20;99.90;;;;;;5014018;28;20100;-45
2021/08/30 08:16:08;;;;;;;12.73;8.60;;;17.10;99.90;;;;;;5014282;28;20041;-44
2021/08/30 08:18:33;;;;;;;14.00;8.98;;;17.20;99.90;;;;;;5012948;28;20026;-47
2021/08/30 08:21:02;;;;;;;15.60;8.43;;;17.30;99.90;;;;;;5013992;28;20137;-47
2021/08/30 08:23:27;;;;;;;12.57;7.00;;;17.40;99.90;;;;;;5014132;28;20026;-45
2021/08/30 08:25:53;;;;;;;12.70;7.95;;;17.50;99.90;;;;;;5014049;28;20056;-45
2021/08/30 08:28:18;;;;;;;12.23;7.40;;;17.70;99.90;;;;;;5013145;28;20404;-45
2021/08/30 08:30:44;;;;;;;10.70;6.88;;;17.70;99.90;;;;;;5013971;28;20073;-45
2021/08/30 08:33:09;;;;;;;10.68;6.93;;;17.70;99.90;;;;;;5012402;28;20022;-43
2021/08/30 08:35:35;;;;;;;13.50;7.22;;;17.70;99.90;;;;;;5013983;28;20025;-43
2021/08/30 08:38:00;;;;;;;13.02;6.75;;;17.70;99.90;;;;;;5013843;28;20080;-43
2021/08/30 08:40:26;;;;;;;10.05;6.30;;;17.60;99.90;;;;;;5013834;28;20481;-45
2021/08/30 08:42:52;;;;;;;13.07;7.50;;;17.60;99.90;;;;;;5013570;28;20106;-45
2021/08/30 08:45:21;;;;;;;10.50;6.97;;;17.60;99.90;;;;;;5013112;28;20076;-45
2021/08/30 08:47:46;;;;;;;9.80;6.53;;;17.50;99.90;;;;;;5011672;28;20045;-45
2021/08/30 08:50:16;;;;;;;8.45;6.32;;;17.50;99.90;;;;;;5013533;28;20493;-43
2021/08/30 08:52:42;;;;;;;7.78;5.68;;;17.50;99.90;;;;;;5013641;28;20059;-45
2021/08/30 08:55:09;;;;;;;9.52;5.88;;;17.60;99.90;;;;;;5013539;28;20041;-43
2021/08/30 08:57:34;;;;;;;7.32;5.13;;;17.80;99.90;;;;;;5013478;28;20033;-46
2021/08/30 09:00:05;;;;;;;7.82;5.10;;;18.00;99.90;;;;;;5013530;28;20026;-43
2021/08/30 09:02:34;;;;;;;9.23;5.65;;;18.20;99.90;;;;;;5012501;28;20061;-48
2021/08/30 09:05:00;;;;;;;9.93;6.20;;;18.40;99.90;;;;;;5013278;28;20053;-45
2021/08/30 09:07:40;;;;;;;11.07;6.88;;;18.50;99.90;;;;;;5013265;28;20030;-43
2021/08/30 09:10:20;;;;;;;9.07;5.65;;;18.50;99.90;;;;;;5013160;28;20489;-43
2021/08/30 09:12:47;;;;;;;9.98;5.35;;;18.40;99.90;;;;;;5013249;28;20030;-44
2021/08/30 09:15:15;;;;;;;9.02;5.75;;;18.20;99.90;;;;;;5008796;28;20448;-43
2021/08/30 09:17:53;;;;;;;9.35;5.68;;;18.20;99.90;;;;;;5006434;28;20030;-44
2021/08/30 09:20:22;;;;;;;7.78;5.55;;;18.20;99.90;;;;;;5010097;28;20424;-45
2021/08/30 09:22:48;;;;;;;6.57;4.30;;;18.30;99.90;;;;;;5013035;28;20428;-46
2021/08/30 09:25:14;;;;;;;7.07;5.60;;;18.50;99.90;;;;;;5013095;28;20025;-45
2021/08/30 09:27:44;;;;;;;6.03;5.00;;;18.50;99.90;;;;;;5013117;28;20057;-47
2021/08/30 09:30:12;;;;;;;8.02;5.10;;;18.50;99.90;;;;;;5013047;28;20103;-46
2021/08/30 09:32:38;;;;;;;6.78;5.60;;;18.60;99.90;;;;;;5011729;28;20151;-47
2021/08/30 09:35:05;;;;;;;8.48;5.15;;;18.70;99.90;;;;;;5012738;28;20367;-46
2021/08/30 09:37:36;;;;;;;10.80;5.32;;;18.80;99.90;;;;;;5013097;28;20026;-47
2021/08/30 09:40:04;;;;;;;6.43;5.15;;;18.80;99.90;;;;;;5012914;28;20362;-47
2021/08/30 09:42:31;;;;;;;4.45;4.05;;;19.00;99.90;;;;;;5012939;28;20416;-45
2021/08/30 09:45:08;;;;;;;6.93;4.93;;;19.10;99.90;;;;;;5012858;28;20057;-43
2021/08/30 09:47:34;;;;;;;6.80;5.22;;;19.00;99.90;;;;;;5011463;28;20029;-43
2021/08/30 09:49:59;;;;;;;5.40;3.92;;;19.10;99.90;;;;;;5012772;28;20040;-42
2021/08/30 09:52:25;;;;;;;4.72;3.83;;;19.20;99.90;;;;;;5012774;28;20038;-45
2021/08/30 09:54:50;;;;;;;6.05;4.20;;;19.30;99.90;;;;;;5012746;28;20085;-42
2021/08/30 09:57:16;;;;;;;6.70;4.05;;;19.40;99.90;;;;;;5012784;28;20209;-46
2021/08/30 09:59:43;;;;;;;5.55;4.40;;;19.50;99.90;;;;;;5012788;28;20045;-44
2021/08/30 10:02:14;;;;;;;5.30;3.50;;;19.50;99.90;;;;;;5012428;28;20109;-43
2021/08/30 10:04:41;;;;;;;3.92;3.53;;;19.50;99.90;;;;;;5011373;28;20048;-47
2021/08/30 10:07:08;;;;;;;5.50;3.47;;;19.70;99.90;;;;;;5012682;28;20034;-45
2021/08/30 10:09:34;;;;;;;5.85;3.78;;;19.80;99.90;;;;;;5012767;28;20437;-45
2021/08/30 10:12:00;;;;;;;4.38;3.53;;;19.90;99.90;;;;;;5012532;28;20056;-43
2021/08/30 10:14:27;;;;;;;4.03;3.63;;;19.90;99.90;;;;;;5012678;28;20659;-43
2021/08/30 10:16:55;;;;;;;4.15;3.75;;;19.80;99.90;;;;;;5012546;28;20425;-45
2021/08/30 10:19:29;;;;;;;4.53;3.65;;;19.80;99.90;;;;;;5012489;28;20508;-43
2021/08/30 10:21:56;;;;;;;4.32;3.65;;;19.70;99.90;;;;;;5016386;28;20034;-46
2021/08/30 10:24:22;;;;;;;3.58;3.28;;;19.60;99.90;;;;;;5016345;28;20561;-43
2021/08/30 10:26:49;;;;;;;5.50;4.07;;;19.70;99.90;;;;;;5016400;28;20026;-44
2021/08/30 10:29:16;;;;;;;4.40;4.00;;;19.70;99.90;;;;;;5016077;28;20105;-43
2021/08/30 10:31:47;;;;;;;4.03;3.63;;;19.80;99.90;;;;;;5016620;28;20369;-45
2021/08/30 10:34:26;;;;;;;4.65;4.20;;;20.00;99.90;;;;;;5014781;28;20075;-48
2021/08/30 10:36:52;;;;;;;4.13;3.53;;;20.10;99.90;;;;;;5016195;28;20033;-43
2021/08/30 10:39:18;;;;;;;5.20;3.88;;;20.30;99.90;;;;;;5016054;28;20025;-47
2021/08/30 10:41:46;;;;;;;5.38;4.40;;;20.50;99.90;;;;;;5015956;28;20030;-44
2021/08/30 10:44:23;;;;;;;4.22;3.83;;;20.70;99.90;;;;;;5016048;28;20405;-45
2021/08/30 10:46:54;;;;;;;5.53;4.22;;;20.90;99.90;;;;;;5015980;28;20026;-44
2021/08/30 10:49:31;;;;;;;4.45;4.05;;;20.90;99.90;;;;;;5014727;28;20026;-47
2021/08/30 10:52:11;;;;;;;4.85;4.35;;;20.70;99.90;;;;;;5015856;28;20034;-43
2021/08/30 10:54:52;;;;;;;4.22;3.83;;;20.50;99.90;;;;;;5015841;28;20366;-43
2021/08/30 10:57:19;;;;;;;5.93;4.00;;;20.50;99.90;;;;;;5015729;28;20441;-43
2021/08/30 10:59:47;;;;;;;4.95;3.63;;;20.40;99.90;;;;;;5015793;28;20029;-43
2021/08/30 11:02:12;;;;;;;4.35;3.50;;;20.50;99.90;;;;;;5015644;28;20635;-43
2021/08/30 11:04:41;;;;;;;4.13;3.72;;;20.50;99.90;;;;;;5014129;28;20056;-42
2021/08/30 11:07:08;;;;;;;4.00;3.60;;;20.70;99.90;;;;;;5015536;28;20418;-44
2021/08/30 11:09:34;;;;;;;3.60;3.30;;;20.80;99.90;;;;;;5015858;28;20113;-45
2021/08/30 11:12:12;;;;;;;4.43;3.90;;;21.00;99.90;;;;;;5015470;28;20092;-45
2021/08/30 11:14:38;;;;;;;4.07;3.67;;;21.20;99.90;;;;;;5015368;28;20482;-46
2021/08/30 11:17:04;;;;;;;3.63;3.28;;;21.20;99.90;;;;;;5015276;28;20030;-43
2021/08/30 11:19:30;;;;;;;3.63;3.33;;;21.20;99.90;;;;;;5014083;28;20058;-44
2021/08/30 11:22:01;;;;;;;3.67;3.38;;;21.00;99.90;;;;;;5015333;28;20524;-46
2021/08/30 11:24:32;;;;;;;4.03;3.53;;;20.90;99.90;;;;;;5015343;28;20034;-45
2021/08/30 11:27:12;;;;;;;3.60;3.15;;;20.90;99.90;;;;;;5015137;28;20049;-43
2021/08/30 11:29:46;;;;;;;3.95;2.88;;;20.90;99.90;;;;;;5015034;28;20030;-43
2021/08/30 11:32:14;;;;;;;3.47;3.17;;;20.90;99.90;;;;;;5013660;28;20025;-43
2021/08/30 11:34:40;;;;;;;3.45;3.15;;;21.00;99.90;;;;;;5013801;28;20504;-45
2021/08/30 11:37:10;;;;;;;4.47;3.53;;;21.10;99.90;;;;;;5014994;28;20104;-44
2021/08/30 11:39:38;;;;;;;3.80;3.42;;;20.90;99.90;;;;;;5015076;28;20584;-43
2021/08/30 11:42:09;;;;;;;8.18;3.20;;;20.60;99.90;;;;;;5014849;28;20029;-45
2021/08/30 11:44:37;;;;;;;3.10;2.78;;;20.30;99.90;;;;;;5014895;28;20037;-43
2021/08/30 11:47:05;;;;;;;3.28;2.97;;;20.00;99.90;;;;;;5014826;28;20037;-43
2021/08/30 11:49:36;;;;;;;2.88;2.60;;;19.80;99.90;;;;;;5013522;28;20025;-48
2021/08/30 11:52:02;;;;;;;3.45;2.80;;;19.80;99.90;;;;;;5014786;28;20498;-42
2021/08/30 11:54:43;;;;;;;2.92;2.60;;;19.80;99.90;;;;;;5014683;28;20037;-45
2021/08/30 11:57:13;;;;;;;2.67;2.47;;;20.00;99.90;;;;;;5014610;28;20029;-43
2021/08/30 11:59:41;;;;;;;3.08;2.78;;;20.00;99.90;;;;;;5011947;28;20029;-42
2021/08/30 12:02:09;;;;;;;4.90;2.75;;;20.00;99.90;;;;;;5012800;28;20401;-43
2021/08/30 12:04:36;;;;;;;2.92;2.25;;;20.10;99.90;;;;;;5011612;28;20403;-43
2021/08/30 12:07:11;;;;;;;2.67;2.30;;;20.30;99.90;;;;;;5012784;28;20026;-45
2021/08/30 12:09:52;;;;;;;2.45;2.25;;;20.50;99.90;;;;;;5013029;28;20037;-47
2021/08/30 12:12:33;;;;;;;4.50;2.92;;;20.70;99.90;;;;;;5012660;28;20061;-43
2021/08/30 12:15:14;;;;;;;3.05;2.75;;;20.90;99.90;;;;;;5012664;28;20162;-45
2021/08/30 12:17:50;;;;;;;2.33;2.08;;;21.10;99.90;;;;;;5011810;28;20375;-45
2021/08/30 12:20:18;;;;;;;5.15;2.75;;;21.20;99.90;;;;;;5011811;28;20091;-43
2021/08/30 12:22:49;;;;;;;4.70;2.40;;;21.30;99.90;;;;;;5012733;28;20025;-45
2021/08/30 12:25:17;;;;;;;5.10;2.58;;;21.30;99.90;;;;;;5012603;28;20053;-46
2021/08/30 12:27:45;;;;;;;5.15;2.75;;;21.40;99.90;;;;;;5012627;28;20036;-45
2021/08/30 12:30:12;;;;;;;2.33;2.13;;;21.50;99.90;;;;;;5000776;28;20069;-42
2021/08/30 12:33:04;;;;;;;2.40;2.20;;;21.60;99.90;;;;;;4991210;28;20031;-43
2021/08/30 12:35:40;;;;;;;3.95;2.40;;;21.70;99.90;;;;;;4992684;28;20029;-45
2021/08/30 12:38:17;;;;;;;3.50;3.17;;;21.80;99.90;;;;;;4992737;28;20494;-46
2021/08/30 12:40:47;;;;;;;3.03;2.72;;;21.80;99.90;;;;;;4992584;28;20496;-43
2021/08/30 12:43:15;;;;;;;4.00;2.72;;;22.00;99.90;;;;;;4992096;28;20034;-46
2021/08/30 12:45:41;;;;;;;3.05;2.33;;;22.00;99.90;;;;;;4992535;28;20026;-43
2021/08/30 12:48:07;;;;;;;3.20;2.90;;;22.10;99.90;;;;;;4990913;28;20113;-45
2021/08/30 12:50:35;;;;;;;3.72;2.38;;;22.00;99.90;;;;;;4981375;28;20034;-46
2021/08/30 12:53:00;;;;;;;7.05;2.08;;;21.80;99.90;;;;;;4945869;28;20046;-45